createdAt,value
2018-03-03T00:00:01.819Z,-8.99
2018-03-03T00:02:29.289Z,-9.05
2018-03-03T00:04:56.778Z,-9.09
2018-03-03T00:07:24.238Z,-9.08
2018-03-03T00:09:51.722Z,-9.06
2018-03-03T00:12:19.214Z,-9.12
2018-03-03T00:14:46.701Z,-9.13
2018-03-03T00:17:14.234Z,-9.15
2018-03-03T00:19:41.739Z,-9.13
2018-03-03T00:22:09.213Z,-9.09
2018-03-03T00:24:36.675Z,-9.07
2018-03-03T00:27:04.218Z,-9.11
2018-03-03T00:29:31.783Z,-9.18
2018-03-03T00:31:59.271Z,-9.23
2018-03-03T00:34:26.777Z,-9.12
2018-03-03T00:36:54.252Z,-9.11
2018-03-03T00:39:21.751Z,-9.19
2018-03-03T00:41:49.217Z,-9.32
2018-03-03T00:44:16.682Z,-9.35
2018-03-03T00:46:44.180Z,-9.29
2018-03-03T00:49:11.686Z,-9.27
2018-03-03T00:51:39.162Z,-9.22
2018-03-03T00:54:06.652Z,-9.30
2018-03-03T00:56:34.204Z,-9.31
2018-03-03T00:59:01.799Z,-9.18
2018-03-03T01:01:29.279Z,-9.22
2018-03-03T01:03:56.757Z,-9.23
2018-03-03T01:06:24.253Z,-9.29
2018-03-03T01:08:51.810Z,-9.26
2018-03-03T01:11:19.297Z,-9.09
2018-03-03T01:13:46.790Z,-8.98
2018-03-03T01:16:14.283Z,-8.86
2018-03-03T01:18:41.802Z,-8.92
2018-03-03T01:21:09.291Z,-9.10
2018-03-03T01:23:36.774Z,-9.31
2018-03-03T01:26:04.264Z,-9.48
2018-03-03T01:28:31.755Z,-9.58
2018-03-03T01:30:59.335Z,-9.63
2018-03-03T01:33:26.806Z,-9.66
2018-03-03T01:35:54.337Z,-9.65
2018-03-03T01:38:21.815Z,-9.65
2018-03-03T01:40:49.311Z,-9.66
2018-03-03T01:43:16.785Z,-9.69
2018-03-03T01:45:44.273Z,-9.70
2018-03-03T01:48:11.765Z,-9.70
2018-03-03T01:53:29.810Z,-9.80
2018-03-03T01:55:57.290Z,-9.76
2018-03-03T01:58:24.759Z,-9.79
2018-03-03T02:00:52.271Z,-9.76
2018-03-03T02:03:19.756Z,-9.84
2018-03-03T02:05:47.231Z,-9.90
2018-03-03T02:08:14.737Z,-9.88
2018-03-03T02:10:42.206Z,-9.87
2018-03-03T02:13:09.761Z,-9.84
2018-03-03T02:15:37.305Z,-9.81
2018-03-03T02:18:04.770Z,-9.80
2018-03-03T02:20:32.302Z,-9.80
2018-03-03T02:22:59.870Z,-9.83
2018-03-03T02:25:27.347Z,-9.89
2018-03-03T02:27:54.850Z,-9.93
2018-03-03T02:30:22.336Z,-10.05
2018-03-03T02:32:49.804Z,-10.11
2018-03-03T02:35:17.294Z,-10.07
2018-03-03T02:37:44.788Z,-10.10
2018-03-03T02:40:12.275Z,-10.11
2018-03-03T02:42:39.742Z,-10.14
2018-03-03T02:45:07.234Z,-10.18
2018-03-03T02:47:34.713Z,-10.18
2018-03-03T02:50:02.199Z,-10.24
2018-03-03T02:52:29.706Z,-10.29
2018-03-03T02:54:57.186Z,-10.34
2018-03-03T02:57:24.690Z,-10.35
2018-03-03T02:59:52.358Z,-10.35
2018-03-03T03:02:19.914Z,-10.32
2018-03-03T03:04:47.388Z,-10.34
2018-03-03T03:07:14.874Z,-10.39
2018-03-03T03:09:42.365Z,-10.38
2018-03-03T03:12:09.855Z,-10.41
2018-03-03T03:14:37.356Z,-10.44
2018-03-03T03:17:04.834Z,-10.49
2018-03-03T03:19:32.327Z,-10.49
2018-03-03T03:21:59.811Z,-10.49
2018-03-03T03:24:27.288Z,-10.43
2018-03-03T03:26:54.783Z,-10.43
2018-03-03T03:29:22.283Z,-10.41
2018-03-03T03:31:49.753Z,-10.47
2018-03-03T03:34:17.260Z,-10.55
2018-03-03T03:36:44.751Z,-10.51
2018-03-03T03:39:12.317Z,-10.48
2018-03-03T03:41:39.826Z,-10.49
2018-03-03T03:44:07.302Z,-10.45
2018-03-03T03:46:34.780Z,-10.32
2018-03-03T03:49:02.288Z,-10.47
2018-03-03T03:51:29.774Z,-10.54
2018-03-03T03:53:57.266Z,-10.55
2018-03-03T03:56:24.790Z,-10.63
2018-03-03T03:58:52.283Z,-10.61
2018-03-03T04:01:19.763Z,-10.59
2018-03-03T04:03:47.365Z,-10.56
2018-03-03T04:06:14.846Z,-10.63
2018-03-03T04:08:42.314Z,-10.63
2018-03-03T04:11:09.797Z,-10.66
2018-03-03T04:13:37.264Z,-10.70
2018-03-03T04:16:04.762Z,-10.72
2018-03-03T04:18:32.298Z,-10.76
2018-03-03T04:20:59.766Z,-10.74
2018-03-03T04:23:27.272Z,-10.78
2018-03-03T04:25:54.744Z,-10.75
2018-03-03T04:28:22.240Z,-10.78
2018-03-03T04:30:49.737Z,-10.77
2018-03-03T04:33:17.198Z,-10.80
2018-03-03T04:35:44.690Z,-10.81
2018-03-03T04:38:12.155Z,-10.82
2018-03-03T04:40:39.652Z,-10.86
2018-03-03T04:43:07.175Z,-10.87
2018-03-03T04:45:34.653Z,-10.94
2018-03-03T04:48:02.144Z,-10.93
2018-03-03T04:50:29.641Z,-10.89
2018-03-03T04:52:57.126Z,-10.92
2018-03-03T04:55:24.595Z,-10.95
2018-03-03T04:57:52.082Z,-10.95
2018-03-03T05:00:25.952Z,-10.98
2018-03-03T05:02:56.258Z,-11.03
2018-03-03T05:08:27.089Z,-11.05
2018-03-03T05:10:54.901Z,-11.07
2018-03-03T05:13:24.138Z,-11.13
2018-03-03T05:16:08.370Z,-11.17
2018-03-03T05:18:41.309Z,-11.20
2018-03-03T05:24:21.606Z,-11.16
2018-03-03T05:26:54.795Z,-11.13
2018-03-03T05:29:27.865Z,-11.16
2018-03-03T05:32:01.005Z,-11.18
2018-03-03T05:34:47.150Z,-11.27
2018-03-03T05:37:20.279Z,-11.33
2018-03-03T05:39:53.485Z,-11.40
2018-03-03T05:42:26.421Z,-11.39
2018-03-03T05:48:00.685Z,-11.40
2018-03-03T05:50:33.955Z,-11.33
2018-03-03T05:53:07.099Z,-11.27
2018-03-03T05:55:37.433Z,-11.29
2018-03-03T06:01:12.515Z,-11.29
2018-03-03T06:03:45.675Z,-11.29
2018-03-03T06:06:23.032Z,-11.28
2018-03-03T06:08:51.465Z,-11.21
2018-03-03T06:11:18.926Z,-11.17
2018-03-03T06:13:46.426Z,-11.19
2018-03-03T06:16:13.993Z,-11.16
2018-03-03T06:18:41.471Z,-11.12
2018-03-03T06:21:08.939Z,-11.06
2018-03-03T06:23:36.446Z,-11.07
2018-03-03T06:26:03.908Z,-11.11
2018-03-03T06:28:31.438Z,-11.05
2018-03-03T06:30:58.936Z,-11.04
2018-03-03T06:33:26.423Z,-10.95
2018-03-03T06:35:53.915Z,-10.99
2018-03-03T06:38:21.496Z,-10.97
2018-03-03T06:40:48.965Z,-10.91
2018-03-03T06:43:16.458Z,-10.89
2018-03-03T06:45:43.955Z,-10.81
2018-03-03T06:48:11.456Z,-10.69
2018-03-03T06:50:38.957Z,-10.61
2018-03-03T06:53:06.426Z,-10.60
2018-03-03T06:55:33.897Z,-10.54
2018-03-03T06:58:01.409Z,-10.51
2018-03-03T07:00:28.967Z,-10.42
2018-03-03T07:02:56.437Z,-10.42
2018-03-03T07:05:23.942Z,-10.36
2018-03-03T07:07:51.441Z,-10.33
2018-03-03T07:10:18.930Z,-10.29
2018-03-03T07:12:46.424Z,-10.25
2018-03-03T07:15:14.370Z,-10.29
2018-03-03T07:17:41.848Z,-10.22
2018-03-03T07:20:09.362Z,-10.21
2018-03-03T07:22:36.933Z,-10.11
2018-03-03T07:25:04.430Z,-9.99
2018-03-03T07:27:31.934Z,-9.85
2018-03-03T07:29:59.442Z,-9.92
2018-03-03T07:32:26.906Z,-9.93
2018-03-03T07:34:54.394Z,-9.89
2018-03-03T07:37:21.974Z,-9.88
2018-03-03T07:39:49.529Z,-9.60
2018-03-03T07:42:17.002Z,-9.54
2018-03-03T07:44:44.478Z,-9.36
2018-03-03T07:47:11.950Z,-9.26
2018-03-03T07:49:39.440Z,-9.05
2018-03-03T07:52:06.905Z,-8.90
2018-03-03T07:54:34.369Z,-8.75
2018-03-03T07:57:11.774Z,-8.65
2018-03-03T07:59:39.303Z,-8.73
2018-03-03T08:02:06.767Z,-8.57
2018-03-03T08:04:34.262Z,-8.66
2018-03-03T08:07:01.768Z,-8.86
2018-03-03T08:09:29.250Z,-8.90
2018-03-03T08:11:56.729Z,-8.69
2018-03-03T08:14:24.286Z,-8.71
2018-03-03T08:16:51.771Z,-8.52
2018-03-03T08:19:19.250Z,-8.50
2018-03-03T08:21:46.737Z,-8.43
2018-03-03T08:24:14.307Z,-8.05
2018-03-03T08:26:41.913Z,-7.92
2018-03-03T08:29:09.387Z,-7.75
2018-03-03T08:31:36.871Z,-7.70
2018-03-03T08:34:04.442Z,-7.46
2018-03-03T08:36:31.922Z,-7.20
2018-03-03T08:38:59.386Z,-6.99
2018-03-03T08:41:26.924Z,-7.24
2018-03-03T08:43:54.437Z,-7.46
2018-03-03T08:46:21.958Z,-7.31
2018-03-03T08:48:49.601Z,-6.90
2018-03-03T08:51:17.077Z,-6.62
2018-03-03T08:53:44.610Z,-6.47
2018-03-03T08:56:12.121Z,-6.44
2018-03-03T08:58:39.586Z,-6.36
2018-03-03T09:01:07.082Z,-6.75
2018-03-03T09:03:35.304Z,-6.68
2018-03-03T09:06:02.799Z,-6.68
2018-03-03T09:08:30.267Z,-6.43
2018-03-03T09:10:57.805Z,-6.63
2018-03-03T09:13:25.350Z,-6.61
2018-03-03T09:15:52.897Z,-6.34
2018-03-03T09:18:20.407Z,-6.12
2018-03-03T09:20:47.956Z,-6.00
2018-03-03T09:23:15.538Z,-6.37
2018-03-03T09:25:43.092Z,-6.62
2018-03-03T09:28:10.563Z,-6.60
2018-03-03T09:30:38.066Z,-6.58
2018-03-03T09:33:05.559Z,-6.12
2018-03-03T09:35:33.032Z,-6.00
2018-03-03T09:38:00.557Z,-5.81
2018-03-03T09:40:28.045Z,-5.65
2018-03-03T09:42:55.546Z,-5.56
2018-03-03T09:45:23.041Z,-5.35
2018-03-03T09:47:50.581Z,-5.64
2018-03-03T09:50:18.062Z,-6.01
2018-03-03T09:52:45.539Z,-6.02
2018-03-03T09:55:13.072Z,-6.10
2018-03-03T09:57:40.660Z,-6.17
2018-03-03T10:00:08.154Z,-5.72
2018-03-03T10:02:35.665Z,-5.44
2018-03-03T10:05:03.228Z,-5.62
2018-03-03T10:07:30.697Z,-5.48
2018-03-03T10:09:58.187Z,-5.58
2018-03-03T10:12:25.678Z,-5.61
2018-03-03T10:14:53.295Z,-5.57
2018-03-03T10:17:20.776Z,-5.43
2018-03-03T10:19:48.362Z,-5.54
2018-03-03T10:22:15.846Z,-5.53
2018-03-03T10:24:43.370Z,-5.43
2018-03-03T10:27:10.838Z,-5.31
2018-03-03T10:29:38.317Z,-5.01
2018-03-03T10:32:05.812Z,-4.75
2018-03-03T10:34:33.283Z,-4.59
2018-03-03T10:37:00.782Z,-4.51
2018-03-03T10:39:28.298Z,-4.63
2018-03-03T10:41:55.785Z,-4.45
2018-03-03T10:44:23.319Z,-4.24
2018-03-03T10:46:50.798Z,-4.33
2018-03-03T10:49:18.286Z,-4.46
2018-03-03T10:51:45.817Z,-4.41
2018-03-03T10:54:13.281Z,-4.10
2018-03-03T10:56:40.814Z,-3.84
2018-03-03T10:59:08.420Z,-3.69
2018-03-03T11:01:35.956Z,-3.82
2018-03-03T11:04:05.941Z,-3.65
2018-03-03T11:06:33.604Z,-3.92
2018-03-03T11:09:01.095Z,-3.72
2018-03-03T11:11:28.641Z,-3.60
2018-03-03T11:13:56.312Z,-3.50
2018-03-03T11:16:23.802Z,-3.62
2018-03-03T11:18:51.267Z,-3.85
2018-03-03T11:21:19.044Z,-3.87
2018-03-03T11:23:46.599Z,-3.93
2018-03-03T11:26:14.098Z,-3.80
2018-03-03T11:28:41.594Z,-3.49
2018-03-03T11:31:09.054Z,-3.62
2018-03-03T11:33:36.584Z,-3.61
2018-03-03T11:36:04.094Z,-3.72
2018-03-03T11:38:31.553Z,-3.79
2018-03-03T11:40:59.341Z,-3.47
2018-03-03T11:43:26.850Z,-3.09
2018-03-03T11:45:54.375Z,-3.13
2018-03-03T11:48:21.889Z,-3.30
2018-03-03T11:50:49.377Z,-3.15
2018-03-03T11:53:16.985Z,-3.36
2018-03-03T11:55:44.458Z,-3.52
2018-03-03T11:58:11.954Z,-3.62
2018-03-03T12:00:39.437Z,-3.32
2018-03-03T12:03:06.925Z,-3.10
2018-03-03T12:05:34.460Z,-3.21
2018-03-03T12:08:01.944Z,-3.18
2018-03-03T12:10:29.430Z,-3.39
2018-03-03T12:12:57.010Z,-3.28
2018-03-03T12:15:24.517Z,-2.93
2018-03-03T12:17:52.051Z,-2.57
2018-03-03T12:20:19.616Z,-2.29
2018-03-03T12:22:47.086Z,-2.18
2018-03-03T12:25:14.567Z,-2.30
2018-03-03T12:27:42.055Z,-2.34
2018-03-03T12:30:09.584Z,-2.15
2018-03-03T12:32:37.045Z,-2.00
2018-03-03T12:35:04.556Z,-1.94
2018-03-03T12:37:32.110Z,-2.04
2018-03-03T12:39:59.570Z,-2.15
2018-03-03T12:42:27.073Z,-2.04
2018-03-03T12:44:54.545Z,-2.03
2018-03-03T12:47:22.033Z,-2.02
2018-03-03T12:49:49.491Z,-1.94
2018-03-03T12:52:17.007Z,-1.89
2018-03-03T12:54:44.524Z,-2.02
2018-03-03T12:57:12.112Z,-2.12
2018-03-03T12:59:39.684Z,-2.01
2018-03-03T13:02:07.159Z,-2.21
2018-03-03T13:04:35.192Z,-2.41
2018-03-03T13:07:02.693Z,-2.25
2018-03-03T13:09:30.151Z,-2.58
2018-03-03T13:11:57.614Z,-2.66
2018-03-03T13:14:25.109Z,-2.46
2018-03-03T13:16:52.658Z,-2.31
2018-03-03T13:19:20.142Z,-2.27
2018-03-03T13:21:47.623Z,-2.38
2018-03-03T13:24:15.109Z,-2.42
2018-03-03T13:26:42.665Z,-2.39
2018-03-03T13:29:10.146Z,-2.18
2018-03-03T13:31:37.635Z,-2.10
2018-03-03T13:34:05.132Z,-2.47
2018-03-03T13:36:32.613Z,-2.55
2018-03-03T13:39:00.230Z,-2.66
2018-03-03T13:41:27.710Z,-2.63
2018-03-03T13:43:55.175Z,-2.53
2018-03-03T13:46:22.630Z,-2.22
2018-03-03T13:48:50.114Z,-2.02
2018-03-03T13:51:17.588Z,-2.13
2018-03-03T13:53:45.110Z,-2.24
2018-03-03T13:56:12.571Z,-2.51
2018-03-03T13:58:40.047Z,-2.48
2018-03-03T14:01:07.664Z,-2.25
2018-03-03T14:03:35.094Z,-2.09
2018-03-03T14:06:02.636Z,-2.28
2018-03-03T14:08:30.110Z,-2.15
2018-03-03T14:10:57.580Z,-1.91
2018-03-03T14:13:25.095Z,-2.15
2018-03-03T14:15:52.561Z,-2.46
2018-03-03T14:18:20.022Z,-2.53
2018-03-03T14:20:47.891Z,-2.65
2018-03-03T14:23:15.466Z,-2.48
2018-03-03T14:25:42.924Z,-2.18
2018-03-03T14:28:10.449Z,-1.95
2018-03-03T14:30:37.910Z,-1.94
2018-03-03T14:33:05.466Z,-1.93
2018-03-03T14:35:33.073Z,-2.30
2018-03-03T14:38:00.531Z,-2.22
2018-03-03T14:40:28.002Z,-2.04
2018-03-03T14:42:55.609Z,-1.89
2018-03-03T14:45:23.173Z,-1.81
2018-03-03T14:47:50.729Z,-1.85
2018-03-03T14:50:18.203Z,-2.29
2018-03-03T14:52:45.711Z,-2.55
2018-03-03T14:55:13.183Z,-2.61
2018-03-03T14:57:40.665Z,-2.57
2018-03-03T15:00:08.153Z,-2.43
2018-03-03T15:02:35.715Z,-2.30
2018-03-03T15:05:03.194Z,-2.31
2018-03-03T15:07:30.694Z,-2.52
2018-03-03T15:09:58.189Z,-2.59
2018-03-03T15:12:25.654Z,-2.57
2018-03-03T15:14:53.167Z,-2.57
2018-03-03T15:17:20.636Z,-2.65
2018-03-03T15:19:48.164Z,-2.68
2018-03-03T15:22:15.617Z,-2.68
2018-03-03T15:24:43.115Z,-2.62
2018-03-03T15:27:10.603Z,-2.62
2018-03-03T15:29:38.063Z,-2.56
2018-03-03T15:32:05.605Z,-2.50
2018-03-03T15:34:33.075Z,-2.54
2018-03-03T15:37:00.665Z,-2.73
2018-03-03T15:39:28.183Z,-2.79
2018-03-03T15:41:55.647Z,-2.84
2018-03-03T15:44:23.106Z,-2.82
2018-03-03T15:46:50.582Z,-2.87
2018-03-03T15:49:18.074Z,-2.91
2018-03-03T15:51:45.561Z,-2.92
2018-03-03T15:54:13.040Z,-2.91
2018-03-03T15:56:40.541Z,-2.85
2018-03-03T15:59:08.024Z,-2.87
2018-03-03T16:01:35.578Z,-2.91
2018-03-03T16:04:03.080Z,-2.95
2018-03-03T16:06:30.588Z,-2.97
2018-03-03T16:08:58.111Z,-2.96
2018-03-03T16:11:25.832Z,-2.93
2018-03-03T16:13:53.368Z,-3.06
2018-03-03T16:16:20.830Z,-3.08
2018-03-03T16:18:48.327Z,-3.06
2018-03-03T16:21:15.813Z,-3.06
2018-03-03T16:23:43.291Z,-3.06
2018-03-03T16:26:10.782Z,-3.13
2018-03-03T16:28:38.248Z,-3.15
2018-03-03T16:31:05.722Z,-3.22
2018-03-03T16:33:33.213Z,-3.26
2018-03-03T16:36:00.699Z,-3.30
2018-03-03T16:38:28.237Z,-3.33
2018-03-03T16:40:55.735Z,-3.34
2018-03-03T16:43:23.210Z,-3.38
2018-03-03T16:45:50.712Z,-3.41
2018-03-03T16:48:18.259Z,-3.44
2018-03-03T16:50:45.753Z,-3.47
2018-03-03T16:53:13.235Z,-3.49
2018-03-03T16:55:40.845Z,-3.51
2018-03-03T16:58:08.325Z,-3.57
2018-03-03T17:00:35.788Z,-3.56
2018-03-03T17:03:03.282Z,-3.55
2018-03-03T17:05:30.755Z,-3.61
2018-03-03T17:07:58.230Z,-3.67
2018-03-03T17:10:25.725Z,-3.69
2018-03-03T17:12:53.291Z,-3.63
2018-03-03T17:15:20.771Z,-3.68
2018-03-03T17:17:48.266Z,-3.73
2018-03-03T17:20:15.726Z,-3.75
2018-03-03T17:22:43.459Z,-3.76
2018-03-03T17:25:11.047Z,-3.74
2018-03-03T17:27:38.606Z,-3.78
2018-03-03T17:30:06.086Z,-3.73
2018-03-03T17:32:33.621Z,-3.74
2018-03-03T17:35:01.087Z,-3.77
2018-03-03T17:37:28.564Z,-3.77
2018-03-03T17:39:56.046Z,-3.82
2018-03-03T17:42:23.558Z,-3.88
2018-03-03T17:44:51.057Z,-3.96
2018-03-03T17:47:18.540Z,-4.01
2018-03-03T17:49:46.018Z,-4.03
2018-03-03T17:52:13.494Z,-4.02
2018-03-03T17:54:40.989Z,-4.00
2018-03-03T17:57:08.452Z,-4.03
2018-03-03T17:59:35.943Z,-4.08
2018-03-03T18:02:03.426Z,-4.12
2018-03-03T18:04:30.930Z,-4.15
2018-03-03T18:06:58.752Z,-4.20
2018-03-03T18:09:26.399Z,-4.22
2018-03-03T18:11:59.847Z,-4.22
2018-03-03T18:14:27.304Z,-4.25
2018-03-03T18:16:54.858Z,-4.30
2018-03-03T18:19:39.957Z,-4.27
2018-03-03T18:22:07.536Z,-4.28
2018-03-03T18:24:37.958Z,-4.29
2018-03-03T18:27:05.457Z,-4.35
2018-03-03T18:29:32.951Z,-4.34
2018-03-03T18:32:00.438Z,-4.32
2018-03-03T18:34:27.954Z,-4.31
2018-03-03T18:36:55.434Z,-4.32
2018-03-03T18:39:22.980Z,-4.33
2018-03-03T18:41:50.423Z,-4.37
2018-03-03T18:44:17.954Z,-4.41
2018-03-03T18:46:45.446Z,-4.44
2018-03-03T18:49:13.042Z,-4.45
2018-03-03T18:51:40.661Z,-4.48
2018-03-03T18:54:08.126Z,-4.53
2018-03-03T18:56:36.093Z,-4.59
2018-03-03T18:59:03.558Z,-4.63
2018-03-03T19:01:31.067Z,-4.65
2018-03-03T19:03:58.562Z,-4.72
2018-03-03T19:06:26.118Z,-4.76
2018-03-03T19:08:53.646Z,-4.82
2018-03-03T19:11:21.141Z,-4.87
2018-03-03T19:13:48.620Z,-4.87
2018-03-03T19:16:16.140Z,-4.85
2018-03-03T19:18:43.648Z,-4.89
2018-03-03T19:21:11.165Z,-4.92
2018-03-03T19:23:38.681Z,-4.94
2018-03-03T19:26:06.214Z,-4.98
2018-03-03T19:31:07.610Z,-5.05
2018-03-03T19:33:35.106Z,-5.07
2018-03-03T19:36:02.593Z,-5.09
2018-03-03T19:38:30.188Z,-5.12
2018-03-03T19:40:57.691Z,-5.13
2018-03-03T19:43:25.166Z,-5.16
2018-03-03T19:45:52.659Z,-5.16
2018-03-03T19:48:20.151Z,-5.17
2018-03-03T19:50:47.656Z,-5.19
2018-03-03T19:53:15.161Z,-5.20
2018-03-03T19:55:42.651Z,-5.20
2018-03-03T19:58:10.134Z,-5.22
2018-03-03T20:00:37.711Z,-5.28
2018-03-03T20:03:05.251Z,-5.27
2018-03-03T20:05:32.726Z,-5.29
2018-03-03T20:08:00.240Z,-5.30
2018-03-03T20:10:27.722Z,-5.28
2018-03-03T20:12:55.243Z,-5.30
2018-03-03T20:15:22.758Z,-5.33
2018-03-03T20:17:50.243Z,-5.35
2018-03-03T20:20:17.739Z,-5.36
2018-03-03T20:22:45.243Z,-5.37
2018-03-03T20:25:12.713Z,-5.43
2018-03-03T20:27:40.206Z,-5.50
2018-03-03T20:30:08.054Z,-5.57
2018-03-03T20:32:35.569Z,-5.59
2018-03-03T20:35:03.079Z,-5.64
2018-03-03T20:37:30.551Z,-5.67
2018-03-03T20:39:58.047Z,-5.71
2018-03-03T20:42:26.432Z,-5.69
2018-03-03T20:44:53.904Z,-5.69
2018-03-03T20:47:21.387Z,-5.69
2018-03-03T20:49:48.937Z,-5.67
2018-03-03T20:52:16.419Z,-5.68
2018-03-03T20:54:43.893Z,-5.73
2018-03-03T20:57:11.517Z,-5.73
2018-03-03T20:59:39.051Z,-5.77
2018-03-03T21:02:06.555Z,-5.82
2018-03-03T21:04:34.094Z,-5.85
2018-03-03T21:07:01.604Z,-5.93
2018-03-03T21:09:29.079Z,-5.94
2018-03-03T21:11:59.502Z,-5.98
2018-03-03T21:14:27.002Z,-5.99
2018-03-03T21:16:54.477Z,-6.00
2018-03-03T21:19:21.969Z,-6.03
2018-03-03T21:21:49.540Z,-6.00
2018-03-03T21:24:17.014Z,-6.01
2018-03-03T21:26:44.495Z,-6.01
2018-03-03T21:29:11.986Z,-5.95
2018-03-03T21:31:39.530Z,-5.91
2018-03-03T21:34:07.006Z,-5.89
2018-03-03T21:36:34.523Z,-5.91
2018-03-03T21:39:02.168Z,-5.94
2018-03-03T21:41:29.649Z,-5.96
2018-03-03T21:43:57.180Z,-5.97
2018-03-03T21:46:24.824Z,-6.00
2018-03-03T21:48:52.323Z,-6.02
2018-03-03T21:51:19.813Z,-6.05
2018-03-03T21:53:47.385Z,-6.06
2018-03-03T21:56:14.860Z,-6.04
2018-03-03T21:58:42.367Z,-6.06
2018-03-03T22:01:09.873Z,-6.09
2018-03-03T22:03:37.377Z,-6.11
2018-03-03T22:06:04.898Z,-6.11
2018-03-03T22:08:32.410Z,-6.07
2018-03-03T22:11:00.169Z,-6.02
2018-03-03T22:13:27.667Z,-6.03
2018-03-03T22:15:55.779Z,-6.04
2018-03-03T22:18:23.477Z,-6.03
2018-03-03T22:20:51.072Z,-6.05
2018-03-03T22:23:18.566Z,-6.09
2018-03-03T22:25:46.086Z,-6.13
2018-03-03T22:28:13.606Z,-6.14
2018-03-03T22:30:41.084Z,-6.14
2018-03-03T22:33:08.644Z,-6.14
2018-03-03T22:35:36.151Z,-6.13
2018-03-03T22:38:03.638Z,-6.15
2018-03-03T22:40:31.149Z,-6.15
2018-03-03T22:42:58.729Z,-6.16
2018-03-03T22:45:26.243Z,-6.13
2018-03-03T22:47:53.830Z,-6.17
2018-03-03T22:50:21.408Z,-6.18
2018-03-03T22:52:48.912Z,-6.19
2018-03-03T22:55:16.399Z,-6.21
2018-03-03T22:57:43.887Z,-6.23
2018-03-03T23:00:11.374Z,-6.17
2018-03-03T23:02:38.920Z,-6.14
2018-03-03T23:05:06.455Z,-6.16
2018-03-03T23:07:33.959Z,-6.14
2018-03-03T23:10:01.508Z,-6.14
2018-03-03T23:12:29.004Z,-6.13
2018-03-03T23:14:56.543Z,-6.10
2018-03-03T23:17:24.027Z,-6.12
2018-03-03T23:19:51.521Z,-6.13
2018-03-03T23:22:19.058Z,-6.19
2018-03-03T23:24:46.533Z,-6.20
2018-03-03T23:27:14.110Z,-6.18
2018-03-03T23:29:41.580Z,-6.23
2018-03-03T23:32:09.053Z,-6.26
2018-03-03T23:34:36.550Z,-6.27
2018-03-03T23:37:04.046Z,-6.32
2018-03-03T23:39:31.536Z,-6.30
2018-03-03T23:41:59.006Z,-6.33
2018-03-03T23:44:26.545Z,-6.29
2018-03-03T23:46:54.032Z,-6.28
2018-03-03T23:49:21.554Z,-6.32
2018-03-03T23:51:49.043Z,-6.42
2018-03-03T23:54:16.548Z,-6.44
2018-03-03T23:56:44.315Z,-6.47
2018-03-03T23:59:11.845Z,-6.48
